Terminal Aerodrome Forecast
Issued by NWS Kansas City/Pleasant Hill, MO

Home | Current Version | Previous Version | Text Only | Print | Product List | Glossary Off
Versions: 1 2 3 4 5 6 7 8 9 10 11 12 13 14 15 16 17

000
FTUS43 KEAX 221700
TAFMCI
TAF
KMCI 221732Z 2218/2318 20011KT 4SM -RA BR OVC006
     FM222200 25011KT 6SM BR VCSH BKN012
     FM230300 25010KT P6SM BKN050=

USA.gov is the U.S. government's official web portal to all federal, state and local government web resources and services.